createdAt,value
2023-08-20T00:00:08.564Z,62.54
2023-08-20T00:02:38.176Z,63.27
2023-08-20T00:05:05.477Z,62.85
2023-08-20T00:07:33.148Z,62.55
2023-08-20T00:10:00.294Z,63.37
2023-08-20T00:12:27.210Z,63.26
2023-08-20T00:15:04.076Z,64.34
2023-08-20T00:17:38.443Z,64.05
2023-08-20T00:20:09.870Z,63.50
2023-08-20T00:22:37.387Z,63.63
2023-08-20T00:25:04.587Z,63.56
2023-08-20T00:27:31.431Z,63.62
2023-08-20T00:30:07.214Z,63.95
2023-08-20T00:32:35.276Z,64.00
2023-08-20T00:35:05.956Z,64.41
2023-08-20T00:37:33.139Z,64.84
2023-08-20T00:40:00.614Z,64.71
2023-08-20T00:42:27.515Z,64.56
2023-08-20T00:44:57.391Z,64.54
2023-08-20T00:47:24.264Z,64.60
2023-08-20T00:49:52.047Z,65.16
2023-08-20T00:52:19.103Z,64.77
2023-08-20T00:54:46.899Z,65.09
2023-08-20T00:57:15.447Z,65.38
2023-08-20T00:59:46.628Z,65.56
2023-08-20T01:02:17.189Z,65.33
2023-08-20T01:04:44.038Z,65.41
2023-08-20T01:07:25.497Z,65.16
2023-08-20T01:10:05.310Z,65.14
2023-08-20T01:12:32.991Z,65.41
2023-08-20T01:14:59.819Z,65.18
2023-08-20T01:17:26.634Z,65.38
2023-08-20T01:19:53.620Z,66.35
2023-08-20T01:22:32.451Z,65.75
2023-08-20T01:25:19.342Z,65.62
2023-08-20T01:27:49.209Z,65.74
2023-08-20T01:30:19.679Z,66.13
2023-08-20T01:32:47.452Z,66.14
2023-08-20T01:35:21.061Z,65.43
2023-08-20T01:37:47.809Z,65.68
2023-08-20T01:40:23.887Z,65.89
2023-08-20T01:42:50.679Z,65.88
2023-08-20T01:45:17.688Z,67.00
2023-08-20T01:47:46.935Z,66.82
2023-08-20T01:50:14.650Z,66.35
2023-08-20T01:52:46.939Z,66.70
2023-08-20T01:55:13.742Z,66.62
2023-08-20T01:57:40.533Z,67.17
2023-08-20T02:00:13.903Z,67.12
2023-08-20T02:02:40.822Z,66.54
2023-08-20T02:05:08.069Z,67.19
2023-08-20T02:07:35.095Z,67.51
2023-08-20T02:10:02.098Z,67.04
2023-08-20T02:12:28.874Z,67.06
2023-08-20T02:15:00.983Z,67.62
2023-08-20T02:17:27.772Z,67.13
2023-08-20T02:19:54.467Z,67.41
2023-08-20T02:22:21.215Z,67.47
2023-08-20T02:24:48.137Z,67.52
2023-08-20T02:27:14.984Z,67.79
2023-08-20T02:29:41.872Z,67.95
2023-08-20T02:32:08.632Z,67.56
2023-08-20T02:34:35.362Z,67.78
2023-08-20T02:37:02.120Z,67.42
2023-08-20T02:39:34.772Z,68.12
2023-08-20T02:42:05.315Z,68.12
2023-08-20T02:44:32.120Z,67.56
2023-08-20T02:46:58.975Z,68.05
2023-08-20T02:49:25.764Z,68.09
2023-08-20T02:51:52.534Z,68.14
2023-08-20T02:54:19.260Z,68.28
2023-08-20T02:56:45.990Z,67.48
2023-08-20T02:59:12.736Z,67.59
2023-08-20T03:01:39.477Z,67.44
2023-08-20T03:04:06.652Z,67.23
2023-08-20T03:06:33.354Z,67.76
2023-08-20T03:09:05.924Z,67.55
2023-08-20T03:11:32.732Z,67.67
2023-08-20T03:14:07.192Z,67.57
2023-08-20T03:16:37.434Z,68.09
2023-08-20T03:19:05.201Z,67.87
2023-08-20T03:21:33.676Z,68.29
2023-08-20T03:24:00.426Z,67.72
2023-08-20T03:26:27.243Z,68.05
2023-08-20T03:28:54.004Z,68.00
2023-08-20T03:31:20.978Z,68.21
2023-08-20T03:33:47.786Z,68.15
2023-08-20T03:36:14.611Z,67.54
2023-08-20T03:38:41.455Z,68.29
2023-08-20T03:41:08.214Z,68.09
2023-08-20T03:43:34.993Z,68.01
2023-08-20T03:46:09.841Z,68.07
2023-08-20T03:48:36.657Z,68.64
2023-08-20T03:51:03.452Z,69.03
2023-08-20T03:53:30.394Z,69.41
2023-08-20T03:55:57.152Z,70.20
2023-08-20T03:58:23.882Z,70.82
2023-08-20T04:00:50.597Z,70.74
2023-08-20T04:03:17.358Z,71.16
2023-08-20T04:05:44.089Z,71.61
2023-08-20T04:08:12.373Z,71.47
2023-08-20T04:10:45.508Z,72.68
2023-08-20T04:13:12.350Z,72.34
2023-08-20T04:15:39.188Z,72.59
2023-08-20T04:18:12.929Z,72.08
2023-08-20T04:20:39.799Z,72.44
2023-08-20T04:23:06.754Z,72.09
2023-08-20T04:25:37.382Z,72.13
2023-08-20T04:28:04.337Z,72.33
2023-08-20T04:30:31.282Z,72.64
2023-08-20T04:32:58.863Z,72.44
2023-08-20T04:35:25.649Z,72.21
2023-08-20T04:37:52.398Z,72.12
2023-08-20T04:40:19.326Z,72.50
2023-08-20T04:42:46.167Z,72.90
2023-08-20T04:45:13.173Z,72.50
2023-08-20T04:47:41.653Z,72.27
2023-08-20T04:50:08.845Z,72.61
2023-08-20T04:52:35.888Z,72.23
2023-08-20T04:55:06.658Z,72.48
2023-08-20T04:57:34.295Z,72.70
2023-08-20T05:00:01.481Z,71.84
2023-08-20T05:02:33.028Z,71.56
2023-08-20T05:05:01.158Z,72.15
2023-08-20T05:07:28.025Z,72.10
2023-08-20T05:09:57.037Z,71.97
2023-08-20T05:12:23.836Z,71.60
2023-08-20T05:14:50.610Z,72.86
2023-08-20T05:17:20.485Z,72.31
2023-08-20T05:19:48.260Z,72.57
2023-08-20T05:22:15.066Z,72.96
2023-08-20T05:24:41.827Z,72.47
2023-08-20T05:27:15.448Z,72.33
2023-08-20T05:29:52.047Z,72.29
2023-08-20T05:32:19.346Z,73.56
2023-08-20T05:34:46.093Z,73.16
2023-08-20T05:37:12.833Z,73.18
2023-08-20T05:39:46.778Z,72.45
2023-08-20T05:42:13.828Z,72.53
2023-08-20T05:44:43.379Z,72.99
2023-08-20T05:47:11.057Z,70.84
2023-08-20T05:49:47.184Z,69.48
2023-08-20T05:52:17.597Z,68.94
2023-08-20T05:54:52.352Z,68.21
2023-08-20T05:57:19.664Z,67.63
2023-08-20T05:59:48.044Z,67.56
2023-08-20T06:02:20.644Z,67.53
2023-08-20T06:04:52.154Z,66.57
2023-08-20T06:07:18.962Z,66.71
2023-08-20T06:09:45.741Z,66.02
2023-08-20T06:12:22.512Z,63.98
2023-08-20T06:14:49.372Z,62.06
2023-08-20T06:17:16.479Z,60.53
2023-08-20T06:19:51.656Z,58.77
2023-08-20T06:22:18.392Z,58.52
2023-08-20T06:24:45.113Z,58.08
2023-08-20T06:27:11.877Z,57.81
2023-08-20T06:29:38.611Z,58.64
2023-08-20T06:32:05.776Z,56.90
2023-08-20T06:34:35.346Z,57.32
2023-08-20T06:37:06.187Z,56.87
2023-08-20T06:39:33.035Z,55.22
2023-08-20T06:41:59.876Z,55.92
2023-08-20T06:44:26.626Z,55.68
2023-08-20T06:46:58.289Z,55.66
2023-08-20T06:49:25.201Z,54.76
2023-08-20T06:51:51.938Z,55.38
2023-08-20T06:54:21.713Z,54.49
2023-08-20T06:56:52.132Z,53.95
2023-08-20T06:59:20.778Z,53.83
2023-08-20T07:01:47.528Z,54.21
2023-08-20T07:04:21.559Z,53.72
2023-08-20T07:06:48.280Z,53.20
2023-08-20T07:09:17.676Z,53.48
2023-08-20T07:11:50.231Z,53.08
2023-08-20T07:14:17.014Z,53.04
2023-08-20T07:16:51.788Z,53.22
2023-08-20T07:19:22.556Z,52.54
2023-08-20T07:21:54.987Z,52.90
2023-08-20T07:24:22.434Z,52.54
2023-08-20T07:26:49.286Z,53.36
2023-08-20T07:29:26.627Z,52.41
2023-08-20T07:31:53.618Z,52.54
2023-08-20T07:34:20.448Z,52.63
2023-08-20T07:36:53.751Z,53.25
2023-08-20T07:39:21.043Z,51.58
2023-08-20T07:41:47.830Z,51.97
2023-08-20T07:44:14.611Z,53.47
2023-08-20T07:46:41.345Z,52.33
2023-08-20T07:49:13.501Z,52.80
2023-08-20T07:51:40.264Z,53.97
2023-08-20T07:54:06.979Z,53.15
2023-08-20T07:56:41.357Z,53.19
2023-08-20T07:59:11.672Z,52.54
2023-08-20T08:01:38.664Z,52.72
2023-08-20T08:04:05.587Z,53.48
2023-08-20T08:06:34.964Z,53.36
2023-08-20T08:09:23.271Z,53.76
2023-08-20T08:11:50.309Z,53.50
2023-08-20T08:14:17.246Z,53.55
2023-08-20T08:16:44.329Z,53.71
2023-08-20T08:19:14.483Z,54.37
2023-08-20T08:21:43.020Z,54.62
2023-08-20T08:24:10.040Z,54.64
2023-08-20T08:26:42.679Z,54.00
2023-08-20T08:29:13.752Z,54.24
2023-08-20T08:31:40.385Z,54.15
2023-08-20T08:34:09.638Z,53.91
2023-08-20T08:36:38.154Z,54.35
2023-08-20T08:39:05.774Z,53.88
2023-08-20T08:41:36.665Z,53.48
2023-08-20T08:44:08.418Z,53.64
2023-08-20T08:46:36.714Z,52.73
2023-08-20T08:49:04.189Z,52.60
2023-08-20T08:51:32.942Z,53.06
2023-08-20T08:54:03.200Z,52.97
2023-08-20T08:56:29.979Z,53.25
2023-08-20T08:59:00.776Z,53.19
2023-08-20T09:01:27.615Z,52.77
2023-08-20T09:03:57.873Z,53.16
2023-08-20T09:06:24.675Z,53.29
2023-08-20T09:09:04.575Z,53.73
2023-08-20T09:11:44.131Z,52.82
2023-08-20T09:14:28.679Z,53.45
2023-08-20T09:16:57.026Z,53.19
2023-08-20T09:19:23.960Z,53.66
2023-08-20T09:21:50.733Z,53.21
2023-08-20T09:24:17.461Z,52.92
2023-08-20T09:26:47.195Z,52.44
2023-08-20T09:29:14.129Z,51.95
2023-08-20T09:31:41.203Z,51.87
2023-08-20T09:34:22.260Z,51.68
2023-08-20T09:36:49.933Z,51.68
2023-08-20T09:39:19.049Z,51.44
2023-08-20T09:41:49.158Z,51.17
2023-08-20T09:44:24.146Z,50.38
2023-08-20T09:46:52.564Z,50.14
2023-08-20T09:49:24.053Z,49.90
2023-08-20T09:51:55.107Z,50.08
2023-08-20T09:54:25.360Z,49.79
2023-08-20T09:57:03.849Z,49.65
2023-08-20T09:59:31.112Z,49.93
2023-08-20T10:01:58.455Z,49.86
2023-08-20T10:04:27.641Z,49.13
2023-08-20T10:06:54.891Z,48.50
2023-08-20T10:09:22.647Z,47.96
2023-08-20T10:11:49.810Z,49.31
2023-08-20T10:14:22.802Z,48.05
2023-08-20T10:16:49.696Z,47.02
2023-08-20T10:19:17.713Z,48.17
2023-08-20T10:21:47.582Z,47.00
2023-08-20T10:24:24.950Z,47.57
2023-08-20T10:27:11.720Z,48.18
2023-08-20T10:29:42.318Z,47.99
2023-08-20T10:32:21.643Z,49.44
2023-08-20T10:34:52.726Z,47.82
2023-08-20T10:37:29.166Z,47.65
2023-08-20T10:39:57.411Z,50.11
2023-08-20T10:42:27.977Z,49.37
2023-08-20T10:44:59.380Z,46.51
2023-08-20T10:47:49.231Z,46.25
2023-08-20T10:50:25.676Z,46.39
2023-08-20T10:52:56.910Z,46.95
2023-08-20T10:55:28.159Z,47.05
2023-08-20T10:57:58.943Z,46.48
2023-08-20T11:00:28.603Z,46.76
2023-08-20T11:02:57.105Z,47.10
2023-08-20T11:05:24.720Z,47.85
2023-08-20T11:07:54.355Z,49.11
2023-08-20T11:10:22.693Z,46.68
2023-08-20T11:12:49.515Z,47.11
2023-08-20T11:15:16.300Z,45.70
2023-08-20T11:17:44.684Z,47.76
2023-08-20T11:20:15.214Z,47.88
2023-08-20T11:22:42.326Z,48.49
2023-08-20T11:25:13.232Z,49.42
2023-08-20T11:27:43.876Z,46.95
2023-08-20T11:30:11.660Z,48.29
2023-08-20T11:32:39.979Z,49.75
2023-08-20T11:35:14.256Z,49.20
2023-08-20T11:37:42.002Z,48.94
2023-08-20T11:40:09.602Z,48.70
2023-08-20T11:42:36.718Z,49.65
2023-08-20T11:45:03.755Z,49.34
2023-08-20T11:47:30.646Z,48.61
2023-08-20T11:50:05.572Z,47.64
2023-08-20T11:52:36.991Z,48.59
2023-08-20T11:55:06.966Z,48.16
2023-08-20T11:57:34.870Z,48.53
2023-08-20T12:00:06.825Z,48.10
2023-08-20T12:02:40.727Z,49.48
2023-08-20T12:05:08.204Z,47.00
2023-08-20T12:07:35.397Z,49.18
2023-08-20T12:10:25.819Z,47.88
2023-08-20T12:12:56.387Z,48.01
2023-08-20T12:15:24.005Z,49.18
2023-08-20T12:18:04.954Z,48.92
2023-08-20T12:20:34.447Z,49.50
2023-08-20T12:23:04.207Z,48.35
2023-08-20T12:25:32.858Z,48.64
2023-08-20T12:27:59.627Z,47.83
2023-08-20T12:30:26.426Z,48.39
2023-08-20T12:32:53.220Z,49.31
2023-08-20T12:35:23.003Z,48.49
2023-08-20T12:37:50.438Z,47.60
2023-08-20T12:40:32.420Z,47.05
2023-08-20T12:43:00.966Z,47.19
2023-08-20T12:45:27.766Z,47.75
2023-08-20T12:47:54.498Z,47.02
2023-08-20T12:50:24.464Z,47.15
2023-08-20T12:52:52.434Z,47.17
2023-08-20T12:55:20.027Z,48.39
2023-08-20T12:58:01.240Z,47.01
2023-08-20T13:00:31.351Z,47.26
2023-08-20T13:02:58.578Z,48.59
2023-08-20T13:05:26.465Z,47.65
2023-08-20T13:07:54.501Z,48.22
2023-08-20T13:10:22.109Z,46.81
2023-08-20T13:12:57.637Z,47.17
2023-08-20T13:15:26.637Z,47.43
2023-08-20T13:17:57.113Z,48.21
2023-08-20T13:20:23.838Z,47.40
2023-08-20T13:22:56.391Z,46.66
2023-08-20T13:25:23.193Z,46.21
2023-08-20T13:27:50.091Z,47.71
2023-08-20T13:30:17.382Z,45.23
2023-08-20T13:32:44.164Z,48.44
2023-08-20T13:35:10.879Z,46.70
2023-08-20T13:37:37.598Z,46.00
2023-08-20T13:40:06.845Z,46.59
2023-08-20T13:42:33.879Z,47.61
2023-08-20T13:45:00.971Z,48.19
2023-08-20T13:47:30.664Z,45.85
2023-08-20T13:49:58.061Z,48.35
2023-08-20T13:52:24.829Z,46.51
2023-08-20T13:54:51.806Z,46.63
2023-08-20T13:57:18.596Z,47.46
2023-08-20T13:59:47.376Z,45.72
2023-08-20T14:02:14.118Z,46.95
2023-08-20T14:04:47.231Z,44.36
2023-08-20T14:07:16.065Z,44.38
2023-08-20T14:09:42.850Z,46.51
2023-08-20T14:12:10.037Z,45.54
2023-08-20T14:14:39.037Z,44.05
2023-08-20T14:17:06.675Z,46.42
2023-08-20T14:19:34.152Z,46.15
2023-08-20T14:22:05.108Z,47.13
2023-08-20T14:24:31.798Z,44.68
2023-08-20T14:26:58.734Z,45.09
2023-08-20T14:29:27.871Z,43.92
2023-08-20T14:31:55.466Z,43.41
2023-08-20T14:34:22.211Z,44.84
2023-08-20T14:36:49.160Z,47.13
2023-08-20T14:39:17.882Z,47.56
2023-08-20T14:41:44.625Z,47.13
2023-08-20T14:44:11.711Z,44.54
2023-08-20T14:46:38.443Z,47.00
2023-08-20T14:49:08.583Z,44.12
2023-08-20T14:51:35.647Z,44.60
2023-08-20T14:54:04.742Z,44.78
2023-08-20T14:56:31.519Z,43.96
2023-08-20T14:59:00.776Z,43.95
2023-08-20T15:01:30.649Z,46.78
2023-08-20T15:03:58.468Z,43.11
2023-08-20T15:06:27.620Z,44.68
2023-08-20T15:09:05.364Z,44.25
2023-08-20T15:11:33.125Z,45.42
2023-08-20T15:13:59.854Z,43.27
2023-08-20T15:16:26.592Z,46.68
2023-08-20T15:19:02.890Z,41.28
2023-08-20T15:21:36.881Z,44.20
2023-08-20T15:24:20.969Z,43.44
2023-08-20T15:26:47.820Z,42.89
2023-08-20T15:29:17.610Z,43.02
2023-08-20T15:31:47.499Z,42.52
2023-08-20T15:34:15.181Z,43.23
2023-08-20T15:36:52.815Z,44.29
2023-08-20T15:39:23.257Z,43.13
2023-08-20T15:41:55.475Z,43.32
2023-08-20T15:44:26.012Z,43.73
2023-08-20T15:46:55.917Z,45.76
2023-08-20T15:49:22.714Z,44.59
2023-08-20T15:51:49.459Z,45.75
2023-08-20T15:54:16.254Z,46.90
2023-08-20T15:56:42.996Z,44.94
2023-08-20T15:59:15.453Z,45.13
2023-08-20T16:01:43.140Z,45.53
2023-08-20T16:04:09.882Z,42.68
2023-08-20T16:06:36.599Z,45.03
2023-08-20T16:09:03.844Z,44.65
2023-08-20T16:11:32.969Z,43.72
2023-08-20T16:13:59.854Z,45.32
2023-08-20T16:16:26.728Z,45.62
2023-08-20T16:18:53.567Z,44.79
2023-08-20T16:21:20.345Z,46.64
2023-08-20T16:23:49.925Z,44.89
2023-08-20T16:26:16.732Z,44.40
2023-08-20T16:28:43.509Z,47.83
2023-08-20T16:31:10.371Z,44.48
2023-08-20T16:33:46.216Z,44.52
2023-08-20T16:36:13.773Z,44.64
2023-08-20T16:38:40.487Z,45.29
2023-08-20T16:41:07.259Z,44.37
2023-08-20T16:43:33.997Z,43.83
2023-08-20T16:46:02.421Z,44.32
2023-08-20T16:48:34.459Z,43.05
2023-08-20T16:51:04.438Z,44.60
2023-08-20T16:53:31.171Z,44.18
2023-08-20T16:55:57.894Z,46.42
2023-08-20T16:58:25.267Z,45.82
2023-08-20T17:00:52.013Z,43.75
2023-08-20T17:03:18.855Z,46.15
2023-08-20T17:05:45.671Z,44.75
2023-08-20T17:08:12.462Z,45.00
2023-08-20T17:10:39.285Z,46.28
2023-08-20T17:13:06.549Z,45.48
2023-08-20T17:15:33.959Z,44.14
2023-08-20T17:18:01.091Z,43.56
2023-08-20T17:20:27.862Z,45.80
2023-08-20T17:22:54.651Z,43.69
2023-08-20T17:25:24.803Z,46.39
2023-08-20T17:27:51.517Z,44.66
2023-08-20T17:30:18.254Z,43.84
2023-08-20T17:32:51.723Z,45.72
2023-08-20T17:35:19.110Z,46.22
2023-08-20T17:37:45.828Z,46.75
2023-08-20T17:40:21.728Z,47.62
2023-08-20T17:42:49.396Z,44.64
2023-08-20T17:47:56.750Z,46.64
2023-08-20T17:50:23.518Z,47.63
2023-08-20T17:52:50.346Z,45.84
2023-08-20T17:55:17.217Z,46.81
2023-08-20T17:57:43.892Z,46.18
2023-08-20T18:00:11.111Z,47.09
2023-08-20T18:02:38.196Z,45.16
2023-08-20T18:05:07.734Z,45.95
2023-08-20T18:07:36.020Z,45.84
2023-08-20T18:10:03.421Z,45.48
2023-08-20T18:12:30.301Z,45.59
2023-08-20T18:14:57.065Z,48.34
2023-08-20T18:17:24.009Z,45.55
2023-08-20T18:19:51.635Z,45.79
2023-08-20T18:22:18.442Z,49.04
2023-08-20T18:24:47.975Z,45.52
2023-08-20T18:27:14.722Z,46.47
2023-08-20T18:29:43.405Z,45.22
2023-08-20T18:32:10.138Z,46.25
2023-08-20T18:34:42.816Z,46.60
2023-08-20T18:37:18.730Z,46.31
2023-08-20T18:39:46.096Z,45.66
2023-08-20T18:42:12.897Z,45.65
2023-08-20T18:44:39.893Z,45.88
2023-08-20T18:47:11.018Z,46.24
2023-08-20T18:49:37.915Z,46.09
2023-08-20T18:52:05.364Z,46.03
2023-08-20T18:54:34.334Z,46.06
2023-08-20T18:57:01.066Z,46.54
2023-08-20T18:59:30.162Z,46.78
2023-08-20T19:01:57.972Z,46.89
2023-08-20T19:04:24.814Z,47.07
2023-08-20T19:06:52.353Z,46.88
2023-08-20T19:09:19.164Z,46.79
2023-08-20T19:11:48.230Z,46.72
2023-08-20T19:14:16.377Z,46.75
2023-08-20T19:16:43.223Z,46.71
2023-08-20T19:19:14.579Z,46.97
2023-08-20T19:21:41.564Z,47.04
2023-08-20T19:24:08.531Z,46.77
2023-08-20T19:26:35.664Z,46.82
2023-08-20T19:29:05.537Z,46.78
2023-08-20T19:31:33.143Z,46.57
2023-08-20T19:34:02.605Z,46.65
2023-08-20T19:36:29.400Z,47.35
2023-08-20T19:38:56.158Z,47.09
2023-08-20T19:41:25.877Z,47.59
2023-08-20T19:43:53.852Z,47.58
2023-08-20T19:46:25.491Z,47.56
2023-08-20T19:48:53.543Z,48.13
2023-08-20T19:51:20.278Z,48.53
2023-08-20T19:53:49.933Z,49.17
2023-08-20T19:56:16.741Z,48.91
2023-08-20T19:58:44.145Z,49.20
2023-08-20T20:01:10.992Z,49.52
2023-08-20T20:03:37.890Z,49.30
2023-08-20T20:06:04.602Z,49.48
2023-08-20T20:08:31.424Z,49.77
2023-08-20T20:10:58.227Z,50.14
2023-08-20T20:13:25.055Z,50.86
2023-08-20T20:15:53.532Z,50.78
2023-08-20T20:18:25.588Z,50.58
2023-08-20T20:20:52.748Z,50.88
2023-08-20T20:23:25.474Z,51.51
2023-08-20T20:25:52.304Z,51.87
2023-08-20T20:28:23.749Z,51.75
2023-08-20T20:30:55.202Z,51.40
2023-08-20T20:33:21.999Z,51.36
2023-08-20T20:35:55.356Z,51.92
2023-08-20T20:38:26.356Z,51.46
2023-08-20T20:40:53.101Z,51.34
2023-08-20T20:43:20.160Z,51.99
2023-08-20T20:45:50.646Z,52.31
2023-08-20T20:48:22.742Z,52.13
2023-08-20T20:50:49.970Z,52.51
2023-08-20T20:53:18.148Z,52.20
2023-08-20T20:55:48.220Z,52.62
2023-08-20T20:58:15.174Z,52.83
2023-08-20T21:00:43.987Z,53.47
2023-08-20T21:03:13.771Z,53.78
2023-08-20T21:05:43.598Z,53.71
2023-08-20T21:08:11.516Z,53.91
2023-08-20T21:10:43.743Z,53.60
2023-08-20T21:13:10.600Z,53.82
2023-08-20T21:15:37.623Z,54.73
2023-08-20T21:18:04.757Z,54.61
2023-08-20T21:20:39.719Z,54.54
2023-08-20T21:23:07.456Z,54.51
2023-08-20T21:25:35.646Z,54.73
2023-08-20T21:28:04.592Z,55.03
2023-08-20T21:30:31.406Z,54.41
2023-08-20T21:32:58.282Z,54.82
2023-08-20T21:35:25.131Z,54.61
2023-08-20T21:37:51.920Z,54.74
2023-08-20T21:40:18.966Z,54.45
2023-08-20T21:42:45.697Z,54.80
2023-08-20T21:45:12.768Z,54.84
2023-08-20T21:47:40.828Z,55.02
2023-08-20T21:50:07.981Z,55.14
2023-08-20T21:52:34.963Z,55.24
2023-08-20T21:55:01.836Z,55.38
2023-08-20T21:57:28.701Z,55.21
2023-08-20T21:59:56.438Z,55.98
2023-08-20T22:02:23.266Z,55.44
2023-08-20T22:04:50.119Z,55.23
2023-08-20T22:07:19.204Z,55.62
2023-08-20T22:09:46.012Z,55.44
2023-08-20T22:12:15.144Z,55.73
2023-08-20T22:14:41.965Z,55.67
2023-08-20T22:17:08.796Z,55.98
2023-08-20T22:19:43.616Z,55.44
2023-08-20T22:22:14.304Z,55.73
2023-08-20T22:24:41.115Z,55.67
2023-08-20T22:27:10.358Z,55.89
2023-08-20T22:29:37.481Z,56.04
2023-08-20T22:32:04.461Z,56.01
2023-08-20T22:34:31.185Z,55.99
2023-08-20T22:37:00.807Z,55.96
2023-08-20T22:39:27.567Z,55.66
2023-08-20T22:41:57.654Z,55.57
2023-08-20T22:44:24.374Z,56.48
2023-08-20T22:46:51.139Z,56.07
2023-08-20T22:49:17.899Z,55.87
2023-08-20T22:51:52.090Z,56.64
2023-08-20T22:54:18.948Z,56.09
2023-08-20T22:56:45.733Z,56.36
2023-08-20T22:59:13.429Z,56.84
2023-08-20T23:01:45.574Z,56.81
2023-08-20T23:04:13.657Z,57.05
2023-08-20T23:06:41.479Z,56.86
2023-08-20T23:09:08.812Z,56.50
2023-08-20T23:11:38.970Z,57.39
2023-08-20T23:14:06.353Z,57.43
2023-08-20T23:16:33.093Z,56.94
2023-08-20T23:19:00.088Z,57.02
2023-08-20T23:21:37.736Z,57.15
2023-08-20T23:24:06.666Z,57.36
2023-08-20T23:26:36.265Z,57.18
2023-08-20T23:29:06.018Z,57.05
2023-08-20T23:31:33.505Z,57.29
2023-08-20T23:34:00.208Z,57.83
2023-08-20T23:36:27.319Z,57.17
2023-08-20T23:38:54.070Z,57.35
2023-08-20T23:41:23.335Z,57.73
2023-08-20T23:43:50.061Z,57.96
2023-08-20T23:46:16.874Z,58.10
2023-08-20T23:48:43.607Z,57.78
2023-08-20T23:51:12.904Z,58.14
2023-08-20T23:53:39.816Z,58.03
2023-08-20T23:56:06.561Z,58.20
2023-08-20T23:58:35.855Z,58.27
